Boeing Field King County International Airport
KBFI : rendu visible

Aérodrome :











RETROUVEZ-NOUS SUR...

 
LOGIN :

S'inscrire | Disclaimer

   EN    FR    IT 

 









Légende :    VFR   VFR Marginal   IFR   IFR Intensif   IFR Très Intensif
Visi : 
Plafond : 
>= 8 km
>= 3000ft
5 à 8 km
1000 à 3000 ft
1500m à 5 km
500 à 1000 ft
800 à 1500m
200 à 500 ft
< 800m
< 200 ft
Symboles :   Orages  Brouillard  Fortes neiges  Fortes précipitations  Vent > 20 kt






- Altitude de l'aérodrome : 21 ft
- Code IATA : BFI


KBFI - Boeing Field King County International

DERNIER METAR :
  • 202353Z 00000KT 10SM CLR 10/04 A3012 RMK AO2 SLP200 T01000039 10106 20078 56010

METARs EXPIRÉS :
  • 202253Z AUTO 04005KT 10SM CLR 10/03 A3013 RMK AO2 SLP202 T01000033 TSNO
  • 202153Z 04006KT 10SM CLR 09/04 A3014 RMK AO2 SLP204 T00940039

TAF KBFI
Valide du 21 à 00h jusqu'au 22 à 00h UTC


202320Z 2100/2124 03005KT P6SM SKC
FM210200 VRB03KT P6SM SKC
FM212000 35003KT P6SM SKC



MET'MAP, la Météo Aéronautique d'un coup d'oeil ! - Copyright ORBIFLY Décembre 2007 - Disclaimer

ORBIFLY MET'MAP TEAM :

Programmation & Développement : Alexandra Zaïnal
Conception & Développement : Baudouin d'Aumeries
Co-Programmation & Développement : Marc-Olivier Méhu
Soutien technique & logistique : Manuel Goepfert

Contact : metmap@orbifly.com




SOURCES & CREDITS :

   NOAA       Earth
Advisory